Hamilton, Washington
Current Conditions -  °F | °C
As of 10:55 AM on Saturday 25 Oct 2014 (Local Time) from KAWO Reporting Station
Few Clouds Few Clouds  
Wind Chill: 55°   Ceiling: Unl
Heat Index: 55°   Visibility: 10mi
Dew Point: 50°   Wind: 6mph
Humidity: 82%   Direction: 40°NE
Pressure: 29.48"   Gusts: NA
Location:  48.52°N, 121.99°W
Report Text: KAWO 251755Z AUTO 04005KT 10SM FEW075 13/10 A2948 RMK AO1 P0001 60002 10130 20060 57014
Loading
Personal Weather Stations






























Interactive Weather Map
Tropical Storm Tracking
New forecast layout! Learn more

10-Day Weather Forecast

Advertisements
Track Severe Weather on mobile